createdAt,value
2023-03-16T00:02:07.248Z,99.90
2023-03-16T00:04:37.584Z,99.90
2023-03-16T00:07:08.552Z,99.90
2023-03-16T00:09:41.180Z,99.90
2023-03-16T00:12:15.687Z,99.90
2023-03-16T00:14:45.092Z,99.90
2023-03-16T00:17:19.020Z,99.90
2023-03-16T00:19:48.513Z,99.90
2023-03-16T00:22:18.133Z,99.90
2023-03-16T00:24:46.143Z,99.90
2023-03-16T00:27:15.626Z,99.90
2023-03-16T00:29:47.461Z,99.90
2023-03-16T00:32:17.517Z,99.90
2023-03-16T00:34:46.374Z,99.90
2023-03-16T00:37:18.295Z,99.90
2023-03-16T00:39:47.890Z,99.90
2023-03-16T00:42:17.991Z,99.90
2023-03-16T00:44:46.207Z,99.90
2023-03-16T00:47:15.352Z,99.90
2023-03-16T00:49:45.550Z,99.90
2023-03-16T00:52:15.117Z,99.90
2023-03-16T00:54:46.208Z,99.90
2023-03-16T00:57:16.473Z,99.90
2023-03-16T00:59:44.593Z,99.90
2023-03-16T01:02:13.660Z,99.90
2023-03-16T01:04:42.602Z,99.90
2023-03-16T01:07:12.914Z,99.90
2023-03-16T01:09:41.422Z,99.90
2023-03-16T01:12:13.237Z,99.90
2023-03-16T01:14:41.840Z,99.90
2023-03-16T01:17:11.146Z,99.90
2023-03-16T01:19:39.475Z,99.90
2023-03-16T01:22:09.749Z,99.90
2023-03-16T01:24:41.861Z,99.90
2023-03-16T01:27:11.382Z,99.90
2023-03-16T01:29:40.363Z,99.90
2023-03-16T01:32:08.849Z,99.90
2023-03-16T01:34:37.141Z,99.90
2023-03-16T01:37:06.572Z,99.90
2023-03-16T01:39:41.891Z,99.90
2023-03-16T01:42:12.305Z,99.90
2023-03-16T01:44:55.904Z,99.90
2023-03-16T01:47:28.095Z,99.90
2023-03-16T01:49:57.747Z,99.90
2023-03-16T01:52:33.358Z,99.90
2023-03-16T01:55:05.742Z,99.90
2023-03-16T01:57:39.242Z,99.90
2023-03-16T02:00:10.829Z,99.90
2023-03-16T02:02:54.844Z,99.90
2023-03-16T02:05:34.476Z,99.90
2023-03-16T02:08:05.152Z,99.90
2023-03-16T02:10:34.516Z,99.90
2023-03-16T02:13:04.357Z,99.90
2023-03-16T02:15:32.875Z,99.90
2023-03-16T02:18:01.550Z,99.90
2023-03-16T02:20:37.661Z,99.90
2023-03-16T02:23:06.856Z,99.90
2023-03-16T02:25:43.738Z,99.90
2023-03-16T02:28:20.311Z,99.90
2023-03-16T02:30:51.416Z,99.90
2023-03-16T02:33:21.334Z,99.90
2023-03-16T02:35:49.435Z,99.90
2023-03-16T02:38:17.480Z,99.90
2023-03-16T02:41:00.722Z,99.90
2023-03-16T02:43:34.148Z,99.90
2023-03-16T02:46:16.046Z,99.90
2023-03-16T02:48:47.756Z,99.90
2023-03-16T02:51:16.128Z,99.90
2023-03-16T02:53:44.212Z,99.90
2023-03-16T02:56:12.462Z,99.90
2023-03-16T02:58:41.045Z,99.90
2023-03-16T03:01:15.311Z,99.90
2023-03-16T03:03:43.777Z,99.90
2023-03-16T03:06:12.190Z,99.90
2023-03-16T03:08:41.251Z,99.90
2023-03-16T03:11:09.428Z,99.90
2023-03-16T03:13:39.236Z,99.90
2023-03-16T03:16:12.097Z,99.90
2023-03-16T03:18:42.096Z,99.90
2023-03-16T03:21:10.161Z,99.90
2023-03-16T03:23:38.279Z,99.90
2023-03-16T03:26:09.183Z,99.90
2023-03-16T03:28:37.294Z,99.90
2023-03-16T03:31:05.481Z,99.90
2023-03-16T03:33:33.827Z,99.90
2023-03-16T03:36:03.355Z,99.90
2023-03-16T03:38:36.276Z,99.90
2023-03-16T03:41:07.351Z,99.90
2023-03-16T03:43:38.005Z,99.90
2023-03-16T03:46:07.606Z,99.90
2023-03-16T03:48:36.180Z,99.90
2023-03-16T03:51:06.745Z,99.90
2023-03-16T03:53:47.175Z,99.90
2023-03-16T03:56:20.587Z,99.90
2023-03-16T03:58:48.600Z,99.90
2023-03-16T04:01:25.101Z,99.90
2023-03-16T04:03:53.154Z,99.90
2023-03-16T04:06:22.792Z,99.90
2023-03-16T04:08:51.097Z,99.90
2023-03-16T04:11:22.354Z,99.90
2023-03-16T04:13:53.400Z,99.90
2023-03-16T04:16:22.239Z,99.90
2023-03-16T04:18:54.340Z,99.90
2023-03-16T04:21:25.552Z,99.90
2023-03-16T04:23:54.457Z,99.90
2023-03-16T04:26:26.801Z,99.90
2023-03-16T04:28:55.308Z,99.90
2023-03-16T04:31:23.824Z,99.90
2023-03-16T04:33:54.653Z,99.90
2023-03-16T04:36:25.324Z,99.90
2023-03-16T04:38:54.962Z,99.90
2023-03-16T04:41:24.219Z,99.90
2023-03-16T04:44:02.997Z,99.90
2023-03-16T04:46:31.050Z,99.90
2023-03-16T04:49:02.588Z,99.90
2023-03-16T04:51:32.347Z,99.90
2023-03-16T04:54:08.540Z,99.90
2023-03-16T04:56:41.569Z,99.90
2023-03-16T04:59:17.964Z,99.90
2023-03-16T05:01:51.677Z,99.90
2023-03-16T05:04:22.030Z,99.90
2023-03-16T05:06:51.639Z,99.90
2023-03-16T05:09:23.723Z,99.90
2023-03-16T05:11:51.795Z,99.90
2023-03-16T05:14:20.196Z,99.90
2023-03-16T05:16:59.349Z,99.90
2023-03-16T05:19:27.502Z,99.90
2023-03-16T05:21:57.312Z,99.90
2023-03-16T05:24:25.370Z,99.90
2023-03-16T05:26:53.370Z,99.90
2023-03-16T05:29:23.176Z,99.90
2023-03-16T05:31:51.329Z,99.90
2023-03-16T05:34:22.774Z,99.90
2023-03-16T05:36:51.763Z,99.90
2023-03-16T05:39:24.262Z,99.90
2023-03-16T05:41:52.310Z,99.90
2023-03-16T05:44:31.577Z,99.90
2023-03-16T05:47:18.212Z,99.90
2023-03-16T05:49:51.474Z,99.90
2023-03-16T05:52:39.408Z,99.90
2023-03-16T05:55:19.340Z,99.90
2023-03-16T05:57:53.071Z,99.90
2023-03-16T06:00:22.798Z,99.90
2023-03-16T06:03:01.499Z,99.90
2023-03-16T06:05:34.228Z,99.90
2023-03-16T06:08:03.586Z,99.90
2023-03-16T06:10:34.009Z,99.90
2023-03-16T06:13:02.122Z,99.90
2023-03-16T06:15:30.724Z,99.90
2023-03-16T06:18:01.293Z,99.90
2023-03-16T06:20:30.361Z,99.90
2023-03-16T06:22:58.696Z,99.90
2023-03-16T06:25:26.882Z,99.10
2023-03-16T06:27:56.978Z,97.60
2023-03-16T06:30:26.942Z,96.70
2023-03-16T06:32:55.371Z,94.70
2023-03-16T06:35:23.645Z,93.00
2023-03-16T06:38:06.443Z,92.50
2023-03-16T06:40:45.115Z,91.90
2023-03-16T06:43:14.420Z,90.70
2023-03-16T06:45:45.652Z,90.20
2023-03-16T06:48:14.365Z,90.00
2023-03-16T06:50:42.489Z,89.50
2023-03-16T06:53:10.488Z,90.30
2023-03-16T06:55:39.466Z,90.10
2023-03-16T06:58:07.648Z,88.80
2023-03-16T07:00:37.087Z,88.50
2023-03-16T07:03:05.459Z,87.80
2023-03-16T07:05:34.796Z,87.80
2023-03-16T07:08:04.322Z,87.70
2023-03-16T07:10:32.846Z,87.50
2023-03-16T07:13:01.447Z,85.30
2023-03-16T07:20:10.661Z,84.70
2023-03-16T07:22:40.423Z,82.90
2023-03-16T07:25:11.626Z,83.10
2023-03-16T07:27:45.517Z,83.20
2023-03-16T07:30:15.245Z,82.60
2023-03-16T07:32:46.571Z,82.80
2023-03-16T07:35:17.265Z,82.40
2023-03-16T07:37:46.575Z,82.20
2023-03-16T07:40:15.698Z,81.90
2023-03-16T07:42:44.534Z,82.00
2023-03-16T07:45:17.998Z,82.10
2023-03-16T07:47:46.947Z,81.70
2023-03-16T07:50:26.830Z,81.70
2023-03-16T07:52:55.435Z,81.40
2023-03-16T07:55:23.834Z,81.10
2023-03-16T07:57:52.799Z,81.70
2023-03-16T08:00:28.702Z,81.00
2023-03-16T08:02:57.592Z,81.50
2023-03-16T08:05:27.991Z,81.20
2023-03-16T08:08:01.191Z,81.50
2023-03-16T08:10:31.481Z,82.10
2023-03-16T08:13:05.680Z,81.90
2023-03-16T08:15:35.053Z,82.00
2023-03-16T08:18:10.654Z,81.50
2023-03-16T08:20:40.054Z,83.30
2023-03-16T08:23:09.841Z,82.90
2023-03-16T08:25:41.627Z,82.00
2023-03-16T08:28:17.043Z,82.40
2023-03-16T08:30:46.962Z,83.90
2023-03-16T08:33:41.583Z,81.20
2023-03-16T08:36:15.353Z,81.40
2023-03-16T08:39:03.810Z,84.00
2023-03-16T08:41:34.818Z,85.70
2023-03-16T08:44:07.813Z,84.70
2023-03-16T08:46:36.231Z,82.80
2023-03-16T08:49:04.686Z,84.20
2023-03-16T08:51:34.586Z,82.50
2023-03-16T08:54:02.637Z,82.00
2023-03-16T08:56:30.713Z,79.50
2023-03-16T08:58:58.753Z,79.30
2023-03-16T09:01:27.633Z,78.70
2023-03-16T09:03:55.769Z,79.90
2023-03-16T09:06:24.389Z,79.10
2023-03-16T09:08:54.036Z,79.60
2023-03-16T09:11:23.159Z,80.00
2023-03-16T09:13:52.909Z,78.90
2023-03-16T09:16:25.523Z,80.90
2023-03-16T09:18:54.087Z,81.10
2023-03-16T09:21:22.264Z,80.40
2023-03-16T09:23:50.876Z,80.60
2023-03-16T09:26:20.963Z,80.90
2023-03-16T09:28:49.281Z,79.60
2023-03-16T09:31:19.864Z,79.70
2023-03-16T09:33:48.689Z,79.90
2023-03-16T09:36:17.594Z,80.30
2023-03-16T09:38:45.672Z,81.10
2023-03-16T09:41:32.211Z,85.00
2023-03-16T09:44:10.731Z,84.20
2023-03-16T09:46:43.567Z,84.40
2023-03-16T09:49:12.505Z,87.80
2023-03-16T09:51:49.731Z,84.80
2023-03-16T09:54:25.750Z,88.40
2023-03-16T09:56:56.765Z,87.30
2023-03-16T09:59:27.335Z,85.90
2023-03-16T10:02:06.762Z,82.60
2023-03-16T10:04:45.166Z,86.60
2023-03-16T10:07:22.788Z,84.10
2023-03-16T10:09:58.295Z,86.70
2023-03-16T10:12:35.151Z,87.60
2023-03-16T10:15:07.607Z,85.90
2023-03-16T10:17:41.959Z,89.40
2023-03-16T10:20:17.462Z,88.10
2023-03-16T10:22:47.166Z,91.10
2023-03-16T10:25:23.747Z,91.90
2023-03-16T10:27:54.124Z,89.40
2023-03-16T10:30:25.874Z,91.10
2023-03-16T10:32:54.086Z,90.40
2023-03-16T10:35:31.477Z,90.60
2023-03-16T10:38:00.060Z,90.10
2023-03-16T10:40:32.706Z,86.90
2023-03-16T10:43:09.344Z,89.60
2023-03-16T10:45:38.144Z,88.40
2023-03-16T10:48:14.081Z,89.60
2023-03-16T10:50:44.284Z,86.10
2023-03-16T10:53:20.663Z,89.60
2023-03-16T10:55:50.337Z,90.50
2023-03-16T10:58:29.655Z,92.60
2023-03-16T11:00:59.018Z,91.60
2023-03-16T11:03:31.700Z,90.90
2023-03-16T11:06:02.420Z,91.80
2023-03-16T11:08:34.947Z,92.50
2023-03-16T11:11:11.862Z,92.50
2023-03-16T11:13:45.857Z,92.10
2023-03-16T11:16:25.922Z,92.40
2023-03-16T11:18:57.537Z,91.80
2023-03-16T11:21:38.720Z,91.00
2023-03-16T11:24:12.122Z,88.20
2023-03-16T11:26:42.945Z,92.70
2023-03-16T11:29:20.356Z,92.00
2023-03-16T11:31:53.379Z,92.60
2023-03-16T11:34:28.284Z,93.30
2023-03-16T11:36:59.901Z,92.40
2023-03-16T11:39:45.225Z,93.40
2023-03-16T11:42:31.025Z,92.90
2023-03-16T11:45:10.046Z,92.30
2023-03-16T11:48:10.955Z,93.60
2023-03-16T11:50:48.142Z,93.90
2023-03-16T11:53:27.421Z,91.80
2023-03-16T11:56:06.622Z,92.40
2023-03-16T11:58:51.942Z,93.00
2023-03-16T12:01:30.311Z,93.40
2023-03-16T12:04:23.541Z,94.90
2023-03-16T12:07:15.313Z,93.40
2023-03-16T12:10:02.225Z,92.80
2023-03-16T12:12:38.854Z,93.50
2023-03-16T12:15:24.281Z,91.80
2023-03-16T12:17:58.535Z,92.50
2023-03-16T12:20:32.068Z,93.00
2023-03-16T12:23:07.782Z,92.70
2023-03-16T12:25:40.021Z,93.00
2023-03-16T12:28:16.047Z,93.80
2023-03-16T12:30:50.535Z,92.90
2023-03-16T12:33:34.330Z,94.50
2023-03-16T12:36:09.688Z,93.50
2023-03-16T12:38:50.156Z,94.40
2023-03-16T12:41:28.177Z,94.30
2023-03-16T12:44:08.300Z,93.70
2023-03-16T12:46:43.454Z,95.00
2023-03-16T12:49:14.132Z,94.90
2023-03-16T12:51:43.847Z,96.70
2023-03-16T12:54:21.285Z,95.40
2023-03-16T12:56:51.674Z,95.20
2023-03-16T12:59:22.013Z,97.30
2023-03-16T13:01:53.502Z,97.00
2023-03-16T13:04:33.755Z,95.50
2023-03-16T13:07:06.048Z,96.70
2023-03-16T13:09:42.108Z,95.90
2023-03-16T13:12:10.562Z,96.90
2023-03-16T13:14:41.802Z,95.40
2023-03-16T13:17:25.615Z,93.70
2023-03-16T13:20:10.262Z,96.50
2023-03-16T13:22:47.349Z,94.70
2023-03-16T13:25:22.159Z,98.00
2023-03-16T13:27:53.231Z,98.10
2023-03-16T13:30:23.559Z,96.20
2023-03-16T13:32:55.572Z,97.10
2023-03-16T13:35:28.285Z,98.00
2023-03-16T13:38:05.654Z,96.60
2023-03-16T13:40:34.924Z,96.90
2023-03-16T13:43:03.457Z,94.50
2023-03-16T13:45:35.272Z,95.60
2023-03-16T13:48:03.498Z,93.90
2023-03-16T13:50:35.952Z,94.40
2023-03-16T13:53:11.803Z,92.70
2023-03-16T13:55:41.683Z,92.80
2023-03-16T13:58:22.804Z,94.70
2023-03-16T14:00:51.076Z,93.80
2023-03-16T14:03:22.357Z,93.30
2023-03-16T14:05:51.955Z,92.00
2023-03-16T14:08:22.581Z,92.50
2023-03-16T14:10:52.120Z,94.30
2023-03-16T14:13:36.098Z,94.20
2023-03-16T14:16:09.334Z,92.10
2023-03-16T14:18:40.720Z,92.60
2023-03-16T14:21:16.426Z,92.40
2023-03-16T14:23:46.428Z,92.80
2023-03-16T14:26:16.443Z,90.60
2023-03-16T14:28:57.321Z,90.20
2023-03-16T14:31:34.334Z,92.10
2023-03-16T14:34:04.946Z,90.00
2023-03-16T14:36:39.568Z,90.80
2023-03-16T14:39:12.986Z,91.30
2023-03-16T14:41:41.577Z,89.20
2023-03-16T14:44:21.150Z,90.70
2023-03-16T14:46:49.992Z,90.20
2023-03-16T14:49:23.673Z,88.50
2023-03-16T14:51:55.083Z,90.40
2023-03-16T14:54:23.880Z,89.30
2023-03-16T14:56:53.608Z,90.70
2023-03-16T14:59:22.606Z,92.40
2023-03-16T15:01:53.342Z,92.30
2023-03-16T15:04:28.146Z,88.50
2023-03-16T15:07:01.566Z,88.40
2023-03-16T15:09:35.408Z,89.90
2023-03-16T15:12:03.629Z,89.30
2023-03-16T15:14:49.566Z,90.00
2023-03-16T15:17:17.633Z,91.50
2023-03-16T15:19:45.800Z,90.20
2023-03-16T15:22:16.031Z,90.30
2023-03-16T15:24:44.091Z,89.20
2023-03-16T15:27:21.150Z,90.40
2023-03-16T15:29:49.270Z,90.60
2023-03-16T15:32:17.473Z,90.60
2023-03-16T15:34:46.685Z,90.80
2023-03-16T15:37:17.670Z,90.00
2023-03-16T15:39:46.762Z,90.00
2023-03-16T15:42:16.768Z,90.30
2023-03-16T15:44:45.209Z,90.30
2023-03-16T15:47:14.683Z,90.80
2023-03-16T15:49:47.699Z,90.70
2023-03-16T15:52:27.451Z,90.40
2023-03-16T15:54:57.379Z,91.10
2023-03-16T15:57:25.550Z,90.70
2023-03-16T15:59:53.778Z,90.20
2023-03-16T16:02:29.560Z,90.80
2023-03-16T16:04:58.226Z,91.40
2023-03-16T16:07:28.243Z,91.00
2023-03-16T16:09:56.301Z,91.50
2023-03-16T16:12:33.554Z,92.10
2023-03-16T16:15:01.773Z,92.70
2023-03-16T16:17:48.076Z,92.70
2023-03-16T16:20:24.543Z,92.40
2023-03-16T16:22:55.105Z,92.30
2023-03-16T16:25:25.057Z,93.00
2023-03-16T16:27:53.198Z,93.10
2023-03-16T16:30:26.551Z,93.50
2023-03-16T16:32:58.716Z,93.90
2023-03-16T16:35:29.425Z,94.20
2023-03-16T16:37:58.989Z,94.20
2023-03-16T16:40:37.044Z,93.30
2023-03-16T16:43:07.194Z,95.10
2023-03-16T16:45:35.952Z,94.30
2023-03-16T16:48:14.408Z,94.80
2023-03-16T16:50:42.448Z,94.80
2023-03-16T16:53:20.731Z,95.30
2023-03-16T16:55:48.997Z,95.20
2023-03-16T16:58:24.297Z,94.40
2023-03-16T17:00:56.191Z,95.00
2023-03-16T17:03:27.378Z,94.70
2023-03-16T17:05:57.889Z,95.00
2023-03-16T17:08:28.538Z,95.70
2023-03-16T17:10:57.234Z,96.00
2023-03-16T17:13:29.722Z,96.90
2023-03-16T17:15:58.824Z,97.30
2023-03-16T17:18:27.145Z,97.60
2023-03-16T17:20:57.143Z,97.70
2023-03-16T17:23:29.265Z,98.20
2023-03-16T17:25:59.616Z,98.90
2023-03-16T17:28:30.741Z,99.40
2023-03-16T17:30:58.932Z,99.70
2023-03-16T17:33:29.246Z,99.90
2023-03-16T17:35:57.417Z,99.90
2023-03-16T17:38:27.989Z,99.90
2023-03-16T17:40:56.997Z,99.90
2023-03-16T17:43:25.395Z,99.90
2023-03-16T17:45:53.874Z,99.90
2023-03-16T17:48:24.194Z,99.90
2023-03-16T17:50:52.601Z,99.90
2023-03-16T17:53:21.924Z,99.90
2023-03-16T17:55:51.348Z,99.90
2023-03-16T17:58:31.533Z,99.90
2023-03-16T18:01:00.023Z,99.90
2023-03-16T18:03:30.656Z,99.90
2023-03-16T18:05:59.396Z,99.90
2023-03-16T18:08:30.106Z,99.90
2023-03-16T18:11:01.685Z,99.90
2023-03-16T18:13:32.493Z,99.90
2023-03-16T18:16:01.319Z,99.90
2023-03-16T18:18:32.790Z,99.90
2023-03-16T18:21:00.835Z,99.90
2023-03-16T18:23:31.803Z,99.90
2023-03-16T18:26:03.777Z,99.90
2023-03-16T18:28:32.476Z,99.90
2023-03-16T18:31:02.313Z,99.90
2023-03-16T18:33:32.721Z,99.90
2023-03-16T18:36:02.906Z,99.90
2023-03-16T18:38:32.814Z,99.90
2023-03-16T18:41:04.631Z,99.90
2023-03-16T18:43:32.718Z,99.90
2023-03-16T18:46:00.796Z,99.90
2023-03-16T18:48:31.664Z,99.90
2023-03-16T18:51:00.086Z,99.90
2023-03-16T18:53:29.727Z,99.90
2023-03-16T18:55:57.863Z,99.90
2023-03-16T18:58:27.805Z,99.90
2023-03-16T19:00:57.576Z,99.90
2023-03-16T19:03:28.175Z,99.90
2023-03-16T19:05:58.513Z,99.90
2023-03-16T19:08:28.570Z,99.90
2023-03-16T19:10:58.995Z,99.90
2023-03-16T19:13:28.686Z,99.90
2023-03-16T19:15:57.981Z,99.90
2023-03-16T19:21:35.319Z,99.90
2023-03-16T19:24:10.592Z,99.90
2023-03-16T19:26:53.566Z,99.90
2023-03-16T19:29:54.547Z,99.90
2023-03-16T19:32:41.838Z,99.90
2023-03-16T19:35:44.328Z,99.90
2023-03-16T19:38:38.429Z,99.90
2023-03-16T19:41:08.742Z,99.90
2023-03-16T19:43:41.557Z,99.90
2023-03-16T19:46:15.819Z,99.90
2023-03-16T19:49:02.958Z,99.90
2023-03-16T19:54:47.844Z,99.90
2023-03-16T19:57:37.143Z,99.90
2023-03-16T20:00:27.165Z,99.90
2023-03-16T20:02:58.905Z,99.90
2023-03-16T20:05:34.283Z,99.90
2023-03-16T20:08:29.672Z,99.90
2023-03-16T20:11:11.942Z,99.90
2023-03-16T20:13:45.455Z,99.90
2023-03-16T20:16:27.419Z,99.90
2023-03-16T20:19:08.246Z,99.90
2023-03-16T20:21:36.706Z,99.90
2023-03-16T20:24:07.877Z,99.90
2023-03-16T20:26:44.755Z,99.90
2023-03-16T20:29:21.189Z,99.90
2023-03-16T20:32:29.273Z,99.90
